Accueil
METAR-TAF:

METAR-TAF

Aéroports :

Saint-Gall, Suisse

Aéroport international Saint-Gall-Altenrhein

latitude: 47-29-06N, longitude: 009-33-43E, altitude: 398 m

Observation

Le bulletin a été fait il y a 26 minutes, à 03:20 UTC
Vent 2 kt de direction variable
Température 2°C
Humidité 100%
Pression 988 hPa
Visibilité: 7000 m

METAR: LSZR 110320Z AUTO VRB02KT 7000 NSC 02/02 Q0988

Heure: 04:46 (03:46 UTC)

Prévision

Le bulletin a été fait il y a 13 heures et 21 minutes, à 14:25 UTC
Prévision valable du 10 à 15 UTC au 10 à 24 UTC
Vent 10 kt de ouest
Visibilité: 8000 m
Quelques nuages à une hauteur de 500 ft
Nuages fragmentés à une hauteur de 5000 ft
pluie faible, neige
Probabilité 40%
du 10 à 15 UTC au 10 à 24 UTC
Vent 20 kt de sud avec des rafales jusqu'à 40 kt
Evoluant progressivement
du 10 à 15 UTC au 10 à 17 UTC
pluie

TAF: LSZR 101425Z 1015/1024 28010KT 8000 -RASN FEW005 BKN050 PROB40 1015/1024 18020G40KT BECMG 1015/1017 RA

Observations et prévisions météorologiques de plus de 4000 aéroports (messages METAR et TAF).

Les stations disponibles sont représentées par des disques jaunes et rouges sur la carte.

Passer la souris dessus pour voir le nom de la station.

Cliquer dessus pour voir les observations et prévisions météorologiques.

Pour changer de carte: cliquez sur les boutons verts avec une croix noire pour zoomer, sur le bouton vert avec un tiret pour effectuer un zoom arrière, ou sur les flèches vertes pour les cartes adjacentes.


METAR-TAF: